Time;durP1;ratioP1;P1;durP2;ratioP2;P2;SDS_P1;SDS_P2;PMS_P1;PMS_P2;Temp;Humidity;BMP_temperature;BMP_pressure;BME280_temperature;BME280_humidity;BME280_pressure;Samples;Min_cycle;Max_cycle;Signal;HPM_P1;HPM_P2
2023/01/12 00:01:46;;;;;;;4.63;1.60;;;18.80;1.00;;;;;;5033450;28;20050;-36
2023/01/12 00:04:14;;;;;;;7.28;1.60;;;18.70;1.00;;;;;;5034254;28;20073;-37
2023/01/12 00:06:41;;;;;;;8.52;1.98;;;18.70;1.00;;;;;;5034663;28;20124;-37
2023/01/12 00:09:09;;;;;;;9.93;2.33;;;18.70;1.00;;;;;;5034625;28;20492;-37
2023/01/12 00:11:37;;;;;;;5.63;1.40;;;18.70;1.00;;;;;;5034524;28;20042;-37
2023/01/12 00:14:05;;;;;;;9.02;3.03;;;18.60;1.00;;;;;;5034216;28;20103;-35
2023/01/12 00:16:39;;;;;;;6.35;1.20;;;18.60;1.00;;;;;;5034329;28;20064;-36
2023/01/12 00:19:11;;;;;;;8.90;2.45;;;18.60;1.00;;;;;;5034492;28;20049;-36
2023/01/12 00:24:36;;;;;;;3.05;1.40;;;18.50;1.00;;;;;;5034068;28;20517;-37
2023/01/12 00:27:06;;;;;;;6.25;1.73;;;18.40;1.00;;;;;;5034294;28;20623;-36
2023/01/12 00:29:33;;;;;;;9.55;2.08;;;18.40;1.00;;;;;;5032993;28;20052;-37
2023/01/12 00:32:00;;;;;;;6.72;1.30;;;18.40;1.00;;;;;;5032839;28;20037;-36
2023/01/12 00:34:27;;;;;;;7.75;1.73;;;18.40;1.00;;;;;;5033862;28;20092;-36
2023/01/12 00:36:56;;;;;;;4.00;1.30;;;18.30;1.00;;;;;;5034109;28;20119;-36
2023/01/12 00:39:23;;;;;;;7.18;1.65;;;18.30;1.00;;;;;;5034043;28;20449;-36
2023/01/12 00:47:20;;;;;;;9.48;2.63;;;18.20;1.00;;;;;;5033903;28;20551;-35
2023/01/12 00:49:48;;;;;;;7.78;1.60;;;18.20;1.00;;;;;;5033691;28;20038;-36
2023/01/12 00:52:17;;;;;;;8.40;1.98;;;18.20;1.00;;;;;;5033472;28;20409;-36
2023/01/12 00:54:57;;;;;;;13.73;1.85;;;18.10;1.00;;;;;;5033750;28;20045;-37
2023/01/12 00:57:24;;;;;;;6.47;1.92;;;18.10;1.00;;;;;;5033689;28;20049;-35
2023/01/12 00:59:53;;;;;;;7.53;2.42;;;18.00;1.00;;;;;;5032100;28;20520;-36
2023/01/12 01:02:21;;;;;;;8.13;1.77;;;18.00;1.00;;;;;;5033238;28;20057;-36
2023/01/12 01:04:49;;;;;;;7.30;1.98;;;18.00;1.00;;;;;;5033278;28;20051;-37
2023/01/12 01:07:17;;;;;;;7.97;2.25;;;18.00;1.00;;;;;;5033417;28;20059;-37
2023/01/12 01:09:44;;;;;;;8.68;2.03;;;18.00;1.00;;;;;;5032198;28;20493;-37
2023/01/12 01:12:10;;;;;;;10.63;1.58;;;18.00;1.00;;;;;;5033174;28;20037;-37
2023/01/12 01:14:38;;;;;;;6.75;1.98;;;17.90;1.00;;;;;;5033132;28;20053;-37
2023/01/12 01:17:05;;;;;;;7.03;2.47;;;17.90;1.00;;;;;;5033195;28;20079;-37
2023/01/12 01:19:31;;;;;;;8.07;1.83;;;17.90;1.00;;;;;;5033303;28;20103;-37
2023/01/12 01:21:58;;;;;;;8.45;1.75;;;17.90;1.00;;;;;;5031847;28;20083;-37
2023/01/12 01:24:25;;;;;;;8.48;1.75;;;17.80;1.00;;;;;;5032827;28;20037;-36
2023/01/12 01:26:52;;;;;;;7.07;1.90;;;17.80;1.00;;;;;;5033119;28;20046;-36
2023/01/12 01:29:19;;;;;;;9.02;1.75;;;17.80;1.00;;;;;;5032936;28;20045;-36
2023/01/12 01:31:48;;;;;;;5.72;2.42;;;17.80;1.00;;;;;;5032888;28;20489;-40
2023/01/12 01:34:15;;;;;;;9.82;2.28;;;17.80;1.00;;;;;;5032734;28;20175;-37
2023/01/12 01:36:42;;;;;;;9.05;1.75;;;17.70;1.00;;;;;;5032984;28;20044;-36
2023/01/12 01:39:09;;;;;;;11.02;2.53;;;17.70;1.00;;;;;;5032946;28;20042;-36
2023/01/12 01:41:35;;;;;;;11.15;2.20;;;17.70;1.00;;;;;;5032690;28;20041;-36
2023/01/12 01:44:28;;;;;;;8.00;2.53;;;17.70;1.00;;;;;;5032536;28;20088;-36
2023/01/12 01:47:08;;;;;;;14.10;2.80;;;17.70;1.00;;;;;;5032679;28;20045;-36
2023/01/12 01:49:44;;;;;;;11.27;3.38;;;17.60;1.00;;;;;;5032745;28;20405;-37
2023/01/12 01:52:19;;;;;;;6.18;1.40;;;17.60;1.00;;;;;;5032351;28;20068;-37
2023/01/12 01:54:52;;;;;;;10.63;2.47;;;17.60;1.00;;;;;;5032577;28;20400;-36
2023/01/12 01:57:21;;;;;;;6.80;1.98;;;17.60;1.00;;;;;;5032642;28;20051;-36
2023/01/12 01:59:52;;;;;;;6.30;1.42;;;17.60;1.00;;;;;;5032467;28;20729;-37
2023/01/12 02:02:19;;;;;;;12.65;1.98;;;17.50;1.00;;;;;;5032270;28;20492;-37
2023/01/12 02:04:46;;;;;;;7.07;2.47;;;17.50;1.00;;;;;;5032123;28;20037;-36
2023/01/12 02:07:13;;;;;;;14.30;2.53;;;17.50;1.00;;;;;;5032341;28;20041;-36
2023/01/12 02:09:40;;;;;;;7.40;2.30;;;17.40;1.00;;;;;;5032334;28;20041;-37
2023/01/12 02:17:54;;;;;;;12.65;2.30;;;17.40;1.00;;;;;;5032239;28;20065;-37
2023/01/12 02:20:58;;;;;;;12.82;2.97;;;17.40;1.00;;;;;;5032180;28;20046;-37
2023/01/12 02:24:01;;;;;;;8.30;2.17;;;17.40;1.00;;;;;;5031284;28;20501;-37
2023/01/12 02:26:40;;;;;;;10.02;2.08;;;17.40;1.00;;;;;;5032025;28;20052;-37
2023/01/12 02:29:38;;;;;;;7.25;2.17;;;17.30;1.00;;;;;;5032116;28;20073;-37
2023/01/12 02:32:48;;;;;;;8.35;2.58;;;17.30;1.00;;;;;;5031958;28;20049;-36
2023/01/12 02:35:41;;;;;;;10.15;2.17;;;17.30;1.00;;;;;;5030542;28;20131;-36
2023/01/12 02:38:34;;;;;;;9.00;2.10;;;17.30;1.00;;;;;;5031942;28;20509;-37
2023/01/12 02:42:40;;;;;;;8.77;2.22;;;17.20;1.00;;;;;;5031995;28;20102;-36
2023/01/12 02:44:23;;;;;;;6.90;2.05;;;17.20;1.00;;;;;;5031459;28;20401;-37
2023/01/12 02:46:51;;;;;;;12.65;2.53;;;17.20;1.00;;;;;;5032094;28;20542;-36
2023/01/12 02:49:21;;;;;;;13.18;2.25;;;17.20;1.00;;;;;;5032083;28;20050;-36
2023/01/12 02:51:55;;;;;;;11.57;3.00;;;17.20;1.00;;;;;;5033300;22;20136;-32
2023/01/12 02:54:23;;;;;;;13.27;2.53;;;17.20;1.00;;;;;;5011040;28;20053;-32
2023/01/12 02:56:54;;;;;;;13.25;2.78;;;17.10;1.00;;;;;;5011812;28;20042;-32
2023/01/12 02:59:33;;;;;;;13.80;2.97;;;17.10;1.00;;;;;;5011904;28;20042;-32
2023/01/12 03:02:05;;;;;;;12.68;2.20;;;17.10;1.00;;;;;;5011687;28;20049;-32
2023/01/12 03:04:32;;;;;;;9.45;2.75;;;17.10;1.00;;;;;;5011569;28;20042;-32
2023/01/12 03:06:58;;;;;;;14.85;2.85;;;17.10;1.00;;;;;;5011893;28;20077;-33
2023/01/12 03:09:35;;;;;;;15.02;2.45;;;17.10;1.00;;;;;;5011739;28;20409;-32
2023/01/12 03:12:10;;;;;;;12.73;2.97;;;17.10;1.00;;;;;;5011786;28;20046;-32
2023/01/12 03:14:41;;;;;;;14.23;3.30;;;17.10;1.00;;;;;;5011635;28;20053;-33
2023/01/12 03:17:15;;;;;;;9.68;3.10;;;17.00;1.00;;;;;;5011754;28;20066;-32
2023/01/12 03:19:44;;;;;;;13.30;2.78;;;17.00;1.00;;;;;;5011861;28;20049;-32
2023/01/12 03:22:13;;;;;;;13.10;3.20;;;17.00;1.00;;;;;;5009158;28;20038;-32
2023/01/12 03:24:47;;;;;;;9.90;2.50;;;16.90;1.00;;;;;;5011376;28;20052;-32
2023/01/12 03:27:25;;;;;;;15.07;2.72;;;16.90;1.00;;;;;;5003099;28;20046;-33
2023/01/12 03:30:01;;;;;;;15.57;3.42;;;16.90;1.00;;;;;;5011692;28;20063;-33
2023/01/12 03:32:27;;;;;;;9.07;3.10;;;16.90;1.00;;;;;;5011316;28;20046;-33
2023/01/12 03:34:54;;;;;;;12.80;3.08;;;16.90;1.00;;;;;;5011349;28;20104;-33
2023/01/12 03:37:31;;;;;;;11.00;3.10;;;16.90;1.00;;;;;;5015130;28;20567;-33
2023/01/12 03:40:16;;;;;;;14.23;3.03;;;16.90;1.00;;;;;;5015361;28;20100;-32
2023/01/12 03:42:48;;;;;;;13.25;2.60;;;16.90;1.00;;;;;;5013786;28;20544;-33
2023/01/12 03:45:27;;;;;;;10.98;3.67;;;16.90;1.00;;;;;;5015416;28;20486;-33
2023/01/12 03:48:24;;;;;;;9.05;2.00;;;16.80;1.00;;;;;;5015399;28;20053;-33
2023/01/12 03:50:57;;;;;;;9.95;2.15;;;16.80;1.00;;;;;;5000638;28;20077;-33
2023/01/12 03:53:25;;;;;;;10.23;3.13;;;16.80;1.00;;;;;;5014832;28;20038;-32
2023/01/12 03:55:57;;;;;;;8.18;1.95;;;16.80;1.00;;;;;;5015257;28;20464;-32
2023/01/12 03:58:24;;;;;;;10.73;2.50;;;16.80;1.00;;;;;;5015096;28;20081;-32
2023/01/12 04:00:51;;;;;;;12.20;2.83;;;16.80;1.00;;;;;;5014803;28;20049;-33
2023/01/12 04:03:17;;;;;;;14.60;2.80;;;16.80;1.00;;;;;;5014669;28;20046;-33
2023/01/12 04:05:45;;;;;;;9.73;2.65;;;16.80;1.00;;;;;;5014683;28;20401;-33
2023/01/12 04:08:15;;;;;;;12.18;3.70;;;16.70;1.00;;;;;;5014808;28;20053;-36
2023/01/12 04:10:42;;;;;;;9.35;2.17;;;16.70;1.00;;;;;;5014622;28;20096;-35
2023/01/12 04:13:09;;;;;;;10.75;2.60;;;16.70;1.00;;;;;;5014486;28;20044;-34
2023/01/12 04:15:41;;;;;;;14.10;2.45;;;16.70;1.00;;;;;;5014618;28;20123;-36
2023/01/12 04:18:09;;;;;;;8.32;2.10;;;16.70;1.00;;;;;;5013386;28;20112;-35
2023/01/12 04:20:36;;;;;;;9.50;2.10;;;16.70;1.00;;;;;;5013265;28;20056;-37
2023/01/12 04:23:03;;;;;;;12.88;3.40;;;16.70;1.00;;;;;;5014343;28;20042;-36
2023/01/12 04:25:30;;;;;;;12.75;2.58;;;16.70;1.00;;;;;;5014389;28;20607;-36
2023/01/12 04:28:00;;;;;;;9.50;2.28;;;16.60;1.00;;;;;;5014445;28;20049;-38
2023/01/12 04:30:29;;;;;;;14.13;3.17;;;16.60;1.00;;;;;;5014452;28;20108;-34
2023/01/12 04:32:57;;;;;;;16.65;3.08;;;16.60;1.00;;;;;;5013915;28;20041;-37
2023/01/12 04:35:25;;;;;;;14.32;3.00;;;16.60;1.00;;;;;;5014307;28;20490;-35
2023/01/12 04:37:52;;;;;;;7.35;2.90;;;16.60;1.00;;;;;;5014314;28;20096;-36
2023/01/12 04:40:19;;;;;;;10.55;2.53;;;16.60;1.00;;;;;;5014248;28;20046;-39
2023/01/12 04:42:59;;;;;;;10.30;2.65;;;16.60;1.00;;;;;;5013822;28;20045;-36
2023/01/12 04:45:36;;;;;;;10.70;3.03;;;16.60;1.00;;;;;;5013931;28;20053;-37
2023/01/12 04:48:05;;;;;;;14.60;2.75;;;16.60;1.00;;;;;;5013744;28;20052;-34
2023/01/12 04:50:32;;;;;;;7.90;2.70;;;16.50;1.00;;;;;;5014264;28;20042;-38
2023/01/12 04:53:02;;;;;;;10.63;2.42;;;16.50;1.00;;;;;;5013471;28;20033;-40
2023/01/12 04:55:28;;;;;;;11.25;2.75;;;16.50;1.00;;;;;;5013978;28;20448;-37
2023/01/12 04:57:56;;;;;;;13.32;2.03;;;16.50;1.00;;;;;;5013747;28;20042;-33
2023/01/12 05:00:23;;;;;;;13.55;2.90;;;16.50;1.00;;;;;;5013858;28;20054;-35
2023/01/12 05:02:57;;;;;;;9.80;2.33;;;16.50;1.00;;;;;;5013475;28;20045;-39
2023/01/12 05:05:24;;;;;;;8.50;2.05;;;16.50;1.00;;;;;;5012438;28;20542;-41
2023/01/12 05:10:36;;;;;;;7.22;2.85;;;16.40;1.00;;;;;;5012935;28;20052;-36
2023/01/12 05:13:04;;;;;;;12.82;2.58;;;16.40;1.00;;;;;;5012787;28;20038;-36
2023/01/12 05:15:30;;;;;;;8.82;2.00;;;16.40;1.00;;;;;;5013600;28;20077;-36
2023/01/12 05:17:57;;;;;;;8.68;2.53;;;16.40;1.00;;;;;;5013530;28;20476;-39
2023/01/12 05:20:24;;;;;;;13.48;2.45;;;16.40;1.00;;;;;;5012996;28;20042;-34
2023/01/12 05:22:51;;;;;;;13.90;3.75;;;16.40;1.00;;;;;;5011336;28;20070;-36
2023/01/12 05:25:18;;;;;;;28.38;4.55;;;16.40;1.00;;;;;;5012520;28;20042;-40
2023/01/12 05:27:44;;;;;;;11.02;2.30;;;16.40;1.00;;;;;;5013016;28;20130;-36
2023/01/12 05:30:11;;;;;;;17.83;3.30;;;16.40;1.00;;;;;;5013447;28;20079;-37
2023/01/12 05:32:42;;;;;;;10.10;2.60;;;16.30;1.00;;;;;;5012932;28;20060;-36
2023/01/12 05:35:09;;;;;;;16.33;3.28;;;16.40;1.00;;;;;;5013214;28;20042;-36
2023/01/12 05:37:36;;;;;;;13.05;3.13;;;16.30;1.00;;;;;;5012989;28;20057;-41
2023/01/12 05:40:03;;;;;;;14.48;3.35;;;16.30;1.00;;;;;;5013178;28;20042;-34
2023/01/12 05:45:16;;;;;;;11.90;3.20;;;16.30;1.00;;;;;;5012851;28;20048;-35
2023/01/12 05:47:43;;;;;;;19.45;3.22;;;16.30;1.00;;;;;;5011656;28;20049;-38
2023/01/12 05:50:13;;;;;;;16.65;3.03;;;16.30;1.00;;;;;;5011490;28;20038;-38
2023/01/12 05:52:39;;;;;;;20.02;4.15;;;16.30;1.00;;;;;;5012477;28;20458;-40
2023/01/12 05:55:06;;;;;;;12.43;2.17;;;16.30;1.00;;;;;;5012876;28;20042;-38
2023/01/12 05:57:36;;;;;;;15.02;3.78;;;16.30;1.00;;;;;;5012684;28;20077;-35
2023/01/12 06:00:04;;;;;;;20.85;4.55;;;16.30;1.00;;;;;;5012365;28;20505;-38
2023/01/12 06:02:37;;;;;;;11.85;2.42;;;16.20;1.00;;;;;;5012400;28;20432;-37
2023/01/12 06:05:08;;;;;;;12.02;2.83;;;16.20;1.00;;;;;;5012640;28;20509;-36
2023/01/12 06:07:36;;;;;;;15.13;3.60;;;16.20;1.00;;;;;;5012733;28;20509;-40
2023/01/12 06:10:04;;;;;;;11.52;2.30;;;16.20;1.00;;;;;;5012644;28;20046;-38
2023/01/12 06:15:16;;;;;;;15.75;3.45;;;16.20;1.00;;;;;;5012510;28;20386;-37
2023/01/12 06:17:43;;;;;;;12.48;2.75;;;16.20;1.00;;;;;;5012784;28;20030;-37
2023/01/12 06:20:15;;;;;;;15.40;2.75;;;16.20;1.00;;;;;;5012443;28;20042;-37
2023/01/12 06:22:43;;;;;;;14.48;3.22;;;16.20;1.00;;;;;;5012123;28;20045;-34
2023/01/12 06:25:10;;;;;;;10.52;2.58;;;16.20;1.00;;;;;;5012398;28;20280;-35
2023/01/12 06:27:37;;;;;;;11.57;2.90;;;16.20;1.00;;;;;;5011126;28;20053;-37
2023/01/12 06:30:06;;;;;;;19.30;3.78;;;16.20;1.00;;;;;;5012569;28;20476;-35
2023/01/12 06:32:34;;;;;;;11.38;3.05;;;16.10;1.00;;;;;;5012102;28;20038;-36
2023/01/12 06:35:02;;;;;;;11.40;3.28;;;16.10;1.00;;;;;;5012202;28;20044;-37
2023/01/12 06:37:44;;;;;;;19.07;4.00;;;16.10;1.00;;;;;;5011226;28;20490;-36
2023/01/12 06:40:11;;;;;;;13.00;3.55;;;16.10;1.00;;;;;;5012087;28;20046;-36
2023/01/12 06:42:57;;;;;;;12.15;4.05;;;16.10;1.00;;;;;;5011828;28;20061;-34
2023/01/12 06:49:05;;;;;;;16.33;4.60;;;16.10;1.00;;;;;;4986836;28;20043;-36
2023/01/12 06:51:32;;;;;;;13.95;2.80;;;16.10;1.00;;;;;;5006166;28;20141;-34
2023/01/12 06:54:00;;;;;;;15.52;2.92;;;16.10;1.00;;;;;;5011768;28;20068;-40
2023/01/12 06:56:27;;;;;;;12.32;2.70;;;16.10;1.00;;;;;;5012054;28;20103;-39
2023/01/12 06:58:54;;;;;;;9.70;2.15;;;16.00;1.00;;;;;;5011965;28;20050;-34
2023/01/12 07:01:20;;;;;;;10.30;1.92;;;16.10;1.00;;;;;;5011923;28;20053;-37
2023/01/12 07:03:47;;;;;;;11.88;2.58;;;16.00;1.00;;;;;;5011806;28;20079;-37
2023/01/12 07:06:15;;;;;;;10.18;2.65;;;16.00;1.00;;;;;;5011832;28;20030;-40
2023/01/12 07:08:53;;;;;;;11.60;2.72;;;16.00;1.00;;;;;;5011898;28;20045;-39
2023/01/12 07:11:20;;;;;;;9.15;2.53;;;16.00;1.00;;;;;;5014238;28;20069;-37
2023/01/12 07:13:47;;;;;;;9.82;2.75;;;16.00;1.00;;;;;;5015701;28;20129;-37
2023/01/12 07:16:13;;;;;;;10.15;3.33;;;16.00;1.00;;;;;;5015751;28;20509;-39
2023/01/12 07:18:40;;;;;;;10.52;2.72;;;16.00;1.00;;;;;;5015728;28;20409;-36
2023/01/12 07:21:08;;;;;;;12.00;3.13;;;16.00;1.00;;;;;;5015603;28;20046;-37
2023/01/12 07:23:36;;;;;;;14.32;3.25;;;16.00;1.00;;;;;;5015218;28;20104;-39
2023/01/12 07:26:03;;;;;;;19.20;2.88;;;16.00;1.00;;;;;;5015447;28;20486;-36
2023/01/12 07:28:32;;;;;;;10.70;3.38;;;16.00;1.00;;;;;;5015509;28;20133;-38
2023/01/12 07:31:00;;;;;;;10.60;2.72;;;16.00;1.00;;;;;;5015577;28;20045;-37
2023/01/12 07:33:27;;;;;;;18.00;3.17;;;16.00;1.00;;;;;;5015285;28;20049;-35
2023/01/12 07:35:58;;;;;;;16.23;3.47;;;16.00;1.00;;;;;;5015429;28;20080;-38
2023/01/12 07:38:26;;;;;;;18.67;3.85;;;16.00;1.00;;;;;;5015402;28;20050;-36
2023/01/12 07:40:53;;;;;;;13.55;2.78;;;15.90;1.00;;;;;;5015336;28;20041;-38
2023/01/12 07:43:20;;;;;;;12.57;4.90;;;15.90;1.00;;;;;;5015080;28;20046;-36
2023/01/12 07:45:47;;;;;;;7.70;3.33;;;15.90;1.00;;;;;;5013962;28;20560;-39
2023/01/12 07:48:15;;;;;;;9.40;3.22;;;15.90;1.00;;;;;;5015316;28;20050;-38
2023/01/12 07:50:42;;;;;;;12.18;3.10;;;15.90;1.00;;;;;;5013876;28;20478;-36
2023/01/12 07:53:09;;;;;;;10.73;3.80;;;15.90;1.00;;;;;;5013496;28;20084;-39
2023/01/12 07:55:38;;;;;;;12.38;3.22;;;15.90;1.00;;;;;;5015107;28;20104;-36
2023/01/12 07:58:08;;;;;;;12.43;3.25;;;15.90;1.00;;;;;;5015157;28;20480;-34
2023/01/12 08:00:35;;;;;;;8.93;2.33;;;15.90;1.00;;;;;;5014892;28;20049;-37
2023/01/12 08:03:12;;;;;;;9.45;2.40;;;15.90;1.00;;;;;;5014539;28;20057;-35
2023/01/12 08:05:39;;;;;;;14.50;3.50;;;15.90;1.00;;;;;;5014781;28;20100;-34
2023/01/12 08:08:07;;;;;;;13.00;2.78;;;15.90;1.00;;;;;;5013266;28;20058;-39
2023/01/12 08:10:34;;;;;;;12.70;3.40;;;15.90;1.00;;;;;;5011452;28;20046;-35
2023/01/12 08:13:01;;;;;;;12.85;3.45;;;15.90;1.00;;;;;;5009687;28;20041;-36
2023/01/12 08:15:34;;;;;;;10.60;2.38;;;15.90;1.00;;;;;;5009094;28;20657;-34
2023/01/12 08:18:05;;;;;;;12.45;2.47;;;15.90;1.00;;;;;;5013637;28;20571;-37
2023/01/12 08:20:34;;;;;;;10.90;2.53;;;15.80;1.00;;;;;;5011385;28;20120;-37
2023/01/12 08:26:50;;;;;;;12.38;3.15;;;15.80;1.00;;;;;;4986258;28;20051;-35
2023/01/12 08:29:28;;;;;;;12.90;3.28;;;15.80;1.00;;;;;;4973048;28;20386;-39
2023/01/12 08:31:58;;;;;;;13.13;4.07;;;15.80;1.00;;;;;;4956894;28;20478;-36
2023/01/12 08:34:28;;;;;;;12.40;2.67;;;15.80;1.00;;;;;;4972683;28;20051;-39
2023/01/12 08:36:58;;;;;;;18.13;3.83;;;15.80;1.00;;;;;;4972804;28;20069;-37
2023/01/12 08:39:28;;;;;;;13.55;2.83;;;15.80;1.00;;;;;;4972958;28;20051;-38
2023/01/12 08:41:55;;;;;;;11.95;3.30;;;15.80;1.00;;;;;;4972715;28;20496;-37
2023/01/12 08:44:22;;;;;;;9.73;3.55;;;15.80;1.00;;;;;;4956433;28;20539;-36
2023/01/12 08:46:51;;;;;;;10.23;2.58;;;15.80;1.00;;;;;;4956289;28;20042;-38
2023/01/12 08:49:22;;;;;;;15.75;2.90;;;15.80;1.00;;;;;;4956483;28;20061;-35
2023/01/12 08:51:50;;;;;;;16.40;3.63;;;15.80;1.00;;;;;;4972254;28;20239;-38
2023/01/12 08:54:19;;;;;;;15.20;2.47;;;15.80;1.00;;;;;;4972243;28;20051;-34
2023/01/12 08:56:48;;;;;;;11.43;2.47;;;15.80;1.00;;;;;;4972446;28;20065;-33
2023/01/12 08:59:15;;;;;;;9.90;2.95;;;15.80;1.00;;;;;;4972576;28;20081;-38
2023/01/12 09:01:42;;;;;;;11.90;2.65;;;15.80;1.00;;;;;;4978918;28;20054;-34
2023/01/12 09:04:09;;;;;;;11.35;2.65;;;15.70;1.00;;;;;;5013441;28;20074;-38
2023/01/12 09:06:47;;;;;;;13.60;3.80;;;15.80;1.00;;;;;;5013544;28;20038;-37
2023/01/12 09:09:20;;;;;;;8.57;2.45;;;15.70;1.00;;;;;;5013744;28;20069;-37
2023/01/12 09:12:40;;;;;;;8.77;2.60;;;15.70;1.00;;;;;;5013181;28;20050;-38
2023/01/12 09:15:17;;;;;;;9.75;3.53;;;15.70;1.00;;;;;;5012238;28;20038;-35
2023/01/12 09:18:10;;;;;;;8.48;2.50;;;15.70;1.00;;;;;;5012769;28;20510;-34
2023/01/12 09:20:47;;;;;;;11.48;3.17;;;15.70;1.00;;;;;;5012268;28;20401;-40
2023/01/12 09:23:18;;;;;;;13.43;2.70;;;15.70;1.00;;;;;;5013173;28;20042;-34
2023/01/12 09:26:31;;;;;;;8.18;2.15;;;15.70;1.00;;;;;;5013379;28;20049;-38
2023/01/12 09:29:12;;;;;;;;;;;15.70;1.00;;;;;;4991987;28;20140;-37
2023/01/12 09:31:42;;;;;;;18.17;3.50;;;15.70;1.00;;;;;;5013030;28;19965;-40
2023/01/12 09:34:09;;;;;;;11.70;3.22;;;15.70;1.00;;;;;;5012963;28;20096;-36
2023/01/12 09:36:38;;;;;;;10.73;2.20;;;15.70;1.00;;;;;;5012962;28;20096;-35
2023/01/12 09:39:06;;;;;;;9.38;2.63;;;15.70;1.00;;;;;;5013122;28;20065;-39
2023/01/12 09:47:55;;;;;;;9.15;2.22;;;15.60;1.00;;;;;;5012787;28;20452;-37
2023/01/12 09:50:35;;;;;;;12.52;2.85;;;15.70;1.00;;;;;;5012951;28;20049;-35
2023/01/12 09:53:12;;;;;;;10.98;2.70;;;15.60;1.00;;;;;;5011171;28;20406;-37
2023/01/12 09:55:48;;;;;;;11.43;2.55;;;15.60;1.00;;;;;;5012642;28;20037;-34
2023/01/12 09:58:36;;;;;;;11.88;3.22;;;15.60;1.00;;;;;;5012867;28;20053;-35
2023/01/12 10:01:11;;;;;;;12.55;2.85;;;15.60;1.00;;;;;;5012815;28;20108;-38
2023/01/12 10:03:55;;;;;;;10.43;2.25;;;15.60;1.00;;;;;;5012453;28;20052;-38
2023/01/12 10:06:22;;;;;;;8.80;2.75;;;15.60;1.00;;;;;;5012365;28;20519;-36
2023/01/12 10:09:20;;;;;;;9.82;3.53;;;15.60;1.00;;;;;;5012656;28;20069;-35
2023/01/12 10:12:05;;;;;;;13.48;2.55;;;15.70;1.00;;;;;;5012474;28;20073;-36
2023/01/12 10:14:32;;;;;;;9.15;2.13;;;15.60;1.00;;;;;;5012314;28;20116;-36
2023/01/12 10:17:01;;;;;;;10.60;2.42;;;15.60;1.00;;;;;;5012535;28;20062;-40
2023/01/12 10:20:02;;;;;;;10.60;2.90;;;15.70;1.00;;;;;;5012586;28;20069;-36
2023/01/12 10:22:37;;;;;;;13.32;2.65;;;15.60;1.00;;;;;;5011990;28;20048;-35
2023/01/12 10:25:28;;;;;;;12.63;2.45;;;15.70;1.00;;;;;;5012349;28;20046;-34
2023/01/12 10:27:57;;;;;;;10.27;2.78;;;15.60;1.00;;;;;;5012333;28;20038;-36
2023/01/12 10:30:27;;;;;;;12.50;2.42;;;15.60;1.00;;;;;;5012240;28;20658;-37
2023/01/12 10:32:54;;;;;;;11.98;2.45;;;15.60;1.00;;;;;;5011880;28;20042;-36
2023/01/12 10:35:24;;;;;;;9.27;2.47;;;15.70;1.00;;;;;;5012118;28;20409;-37
2023/01/12 10:37:53;;;;;;;10.75;2.75;;;15.60;1.00;;;;;;5011911;28;20413;-34
2023/01/12 10:40:31;;;;;;;11.27;2.25;;;15.60;1.00;;;;;;5012392;28;20042;-33
2023/01/12 10:46:03;;;;;;;9.32;1.38;;;15.60;1.00;;;;;;5011607;28;20417;-36
2023/01/12 10:48:30;;;;;;;7.35;2.30;;;15.60;1.00;;;;;;5012060;28;20049;-36
2023/01/12 10:51:00;;;;;;;7.88;1.52;;;15.60;1.00;;;;;;5011762;28;20149;-38
2023/01/12 10:53:34;;;;;;;12.43;3.28;;;15.60;1.00;;;;;;5011715;28;20053;-35
2023/01/12 10:56:30;;;;;;;6.28;2.30;;;15.60;1.00;;;;;;5012059;28;20436;-36
2023/01/12 10:59:01;;;;;;;7.20;1.80;;;15.60;1.00;;;;;;5012271;28;20466;-34
2023/01/12 11:02:05;;;;;;;8.98;2.05;;;15.60;1.00;;;;;;5010538;28;20045;-37
2023/01/12 11:04:47;;;;;;;7.60;1.90;;;15.60;1.00;;;;;;5011499;28;20046;-38
2023/01/12 11:07:27;;;;;;;9.70;2.42;;;15.60;1.00;;;;;;5010546;28;20042;-39
2023/01/12 11:09:58;;;;;;;6.82;2.28;;;15.60;1.00;;;;;;5012030;28;20065;-37
2023/01/12 11:12:37;;;;;;;8.82;1.85;;;15.60;1.00;;;;;;5011651;28;20046;-36
2023/01/12 11:15:15;;;;;;;7.47;1.90;;;15.60;1.00;;;;;;5011844;28;20089;-36
2023/01/12 11:18:03;;;;;;;8.15;1.75;;;15.60;1.00;;;;;;5011778;28;20046;-37
2023/01/12 11:20:54;;;;;;;12.77;2.65;;;15.60;1.00;;;;;;5011833;28;20042;-33
2023/01/12 11:23:40;;;;;;;10.68;1.90;;;15.60;1.00;;;;;;5010047;28;20056;-35
2023/01/12 11:26:17;;;;;;;12.02;1.92;;;15.60;1.00;;;;;;5011731;28;20050;-37
2023/01/12 11:28:49;;;;;;;15.85;2.72;;;15.60;1.00;;;;;;5011685;28;20088;-35
2023/01/12 11:31:18;;;;;;;10.65;2.58;;;15.60;1.00;;;;;;5011715;28;20390;-35
2023/01/12 11:33:56;;;;;;;12.10;2.47;;;15.60;1.00;;;;;;5011251;28;20066;-39
2023/01/12 11:36:38;;;;;;;9.10;2.15;;;15.60;1.00;;;;;;5011719;28;20041;-36
2023/01/12 11:39:11;;;;;;;8.02;1.88;;;15.60;1.00;;;;;;5011732;28;20061;-35
2023/01/12 11:44:42;;;;;;;12.02;2.00;;;15.60;1.00;;;;;;5000402;28;20054;-36
2023/01/12 11:47:27;;;;;;;9.77;2.15;;;15.60;1.00;;;;;;5011469;28;20044;-39
2023/01/12 11:50:17;;;;;;;11.40;3.05;;;15.60;1.00;;;;;;5011078;28;20125;-33
2023/01/12 11:52:44;;;;;;;10.77;2.25;;;15.60;1.00;;;;;;5009524;28;20050;-36
2023/01/12 11:55:19;;;;;;;12.88;2.83;;;15.60;1.00;;;;;;5011531;28;20041;-38
2023/01/12 11:57:48;;;;;;;10.15;2.25;;;15.60;1.00;;;;;;5013985;28;20520;-36
2023/01/12 12:00:21;;;;;;;12.07;3.00;;;15.60;1.00;;;;;;5014938;28;20050;-37
2023/01/12 12:03:05;;;;;;;12.13;2.58;;;15.60;1.00;;;;;;5014617;28;20117;-36
2023/01/12 12:05:35;;;;;;;7.95;1.65;;;15.60;1.00;;;;;;5014967;28;20045;-37
2023/01/12 12:08:12;;;;;;;12.52;3.10;;;15.60;1.00;;;;;;5014681;28;20078;-37
2023/01/12 12:10:46;;;;;;;8.50;1.92;;;15.60;1.00;;;;;;5014657;28;20060;-34
2023/01/12 12:13:12;;;;;;;11.95;2.45;;;15.60;1.00;;;;;;5014297;28;20046;-37
2023/01/12 12:15:53;;;;;;;11.57;2.42;;;15.60;1.00;;;;;;5014634;28;20062;-35
2023/01/12 12:18:49;;;;;;;11.32;2.40;;;15.60;1.00;;;;;;5014662;28;20069;-37
2023/01/12 12:21:44;;;;;;;14.40;2.63;;;15.60;1.00;;;;;;5014686;28;20045;-38
2023/01/12 12:24:24;;;;;;;10.32;2.65;;;15.60;1.00;;;;;;5013067;28;20065;-37
2023/01/12 12:27:16;;;;;;;10.00;3.03;;;15.60;1.00;;;;;;5014337;28;20453;-39
2023/01/12 12:29:49;;;;;;;13.82;2.92;;;15.60;1.00;;;;;;5014473;28;20448;-33
2023/01/12 12:32:37;;;;;;;10.70;2.45;;;15.60;1.00;;;;;;5014085;28;20108;-39
2023/01/12 12:35:22;;;;;;;10.52;2.50;;;15.60;1.00;;;;;;5014346;28;20100;-40
2023/01/12 12:37:56;;;;;;;11.98;2.03;;;15.60;1.00;;;;;;5014409;28;20077;-35
2023/01/12 12:46:34;;;;;;;8.43;1.95;;;15.60;1.00;;;;;;5014010;28;20049;-38
2023/01/12 12:49:10;;;;;;;9.85;1.92;;;15.60;1.00;;;;;;5014054;28;20046;-36
2023/01/12 12:51:39;;;;;;;17.02;3.13;;;15.60;1.00;;;;;;5013835;28;20045;-37
2023/01/12 12:54:14;;;;;;;10.25;2.08;;;15.60;1.00;;;;;;5013528;28;20437;-38
2023/01/12 12:56:42;;;;;;;8.40;2.05;;;15.60;1.00;;;;;;5013829;28;20449;-39
2023/01/12 12:59:31;;;;;;;9.27;3.33;;;15.60;1.00;;;;;;5013614;28;20046;-36
2023/01/12 13:02:02;;;;;;;7.10;2.10;;;15.60;1.00;;;;;;5013416;28;20049;-34
2023/01/12 13:04:52;;;;;;;13.60;2.35;;;15.60;1.00;;;;;;5013709;28;20121;-35
2023/01/12 13:07:20;;;;;;;7.63;1.95;;;15.60;1.00;;;;;;5003237;28;20054;-36
2023/01/12 13:09:48;;;;;;;10.43;2.10;;;15.60;1.00;;;;;;5013790;28;20042;-38
2023/01/12 13:12:32;;;;;;;13.18;2.58;;;15.60;1.00;;;;;;5013281;28;20557;-36
2023/01/12 13:15:31;;;;;;;14.40;3.17;;;15.60;1.00;;;;;;5013626;28;20034;-34
2023/01/12 13:17:58;;;;;;;12.40;2.45;;;15.60;1.00;;;;;;5013520;28;20061;-35
2023/01/12 13:20:48;;;;;;;7.07;3.25;;;15.60;1.00;;;;;;5013420;28;20052;-34
2023/01/12 13:23:50;;;;;;;11.38;2.08;;;15.60;1.00;;;;;;5013307;28;20056;-39
2023/01/12 13:26:44;;;;;;;9.13;2.80;;;15.60;1.00;;;;;;4933426;29;20103;-39
2023/01/12 13:29:26;;;;;;;;;;;15.50;1.00;;;;;;5010035;28;20054;-39
2023/01/12 13:31:53;;;;;;;11.35;2.38;;;15.50;1.00;;;;;;5012005;28;20405;-34
2023/01/12 13:34:41;;;;;;;10.52;2.28;;;15.50;1.00;;;;;;5013093;28;20041;-38
2023/01/12 13:37:20;;;;;;;6.82;2.33;;;15.50;1.00;;;;;;5011852;28;20076;-38
2023/01/12 13:40:10;;;;;;;10.52;2.05;;;15.50;1.00;;;;;;5013066;28;20061;-36
2023/01/12 13:45:23;;;;;;;9.27;2.28;;;15.50;1.00;;;;;;5013030;28;20573;-36
2023/01/12 13:47:55;;;;;;;10.55;1.88;;;15.50;1.00;;;;;;5011606;28;20597;-36
2023/01/12 13:50:24;;;;;;;9.10;2.33;;;15.50;1.00;;;;;;5013108;28;20045;-38
2023/01/12 13:53:02;;;;;;;9.07;1.98;;;15.50;1.00;;;;;;5012473;28;20470;-32
2023/01/12 13:55:31;;;;;;;11.32;2.67;;;15.50;1.00;;;;;;5012623;28;20046;-39
2023/01/12 13:58:20;;;;;;;8.18;2.38;;;15.50;1.00;;;;;;5013077;28;20054;-36
2023/01/12 14:01:00;;;;;;;9.52;2.80;;;15.50;1.00;;;;;;5012793;28;20049;-38
2023/01/12 14:03:33;;;;;;;10.43;2.03;;;15.50;1.00;;;;;;5012529;28;20404;-36
2023/01/12 14:06:24;;;;;;;8.93;3.17;;;15.50;1.00;;;;;;5012645;28;20510;-38
2023/01/12 14:09:05;;;;;;;7.90;1.73;;;15.50;1.00;;;;;;5012602;28;20041;-38
2023/01/12 14:12:19;;;;;;;8.73;1.75;;;15.50;1.00;;;;;;5011362;28;20042;-35
2023/01/12 14:18:44;;;;;;;12.48;2.05;;;15.50;1.00;;;;;;5011109;28;20449;-37